Time;durP1;ratioP1;P1;durP2;ratioP2;P2;SDS_P1;SDS_P2;PMS_P1;PMS_P2;Temp;Humidity;BMP_temperature;BMP_pressure;BME280_temperature;BME280_humidity;BME280_pressure;Samples;Min_cycle;Max_cycle;Signal;HPM_P1;HPM_P2
2023/10/24 00:01:20;;;;;;;13.00;3.72;;;12.60;99.90;;;;;;5035962;28;20210;-66
2023/10/24 00:03:46;;;;;;;7.43;3.70;;;12.70;99.90;;;;;;5035887;28;20187;-65
2023/10/24 00:06:11;;;;;;;5.10;3.50;;;12.70;99.90;;;;;;5036414;28;20182;-65
2023/10/24 00:08:37;;;;;;;5.78;3.40;;;12.80;99.90;;;;;;5035997;28;20595;-65
2023/10/24 00:11:05;;;;;;;7.57;3.92;;;12.90;99.90;;;;;;5035843;28;20207;-65
2023/10/24 00:13:31;;;;;;;7.88;3.78;;;12.90;99.90;;;;;;5035912;28;20171;-65
2023/10/24 00:15:58;;;;;;;8.48;3.90;;;12.90;99.90;;;;;;5035971;28;20285;-65
2023/10/24 00:18:27;;;;;;;6.57;3.65;;;13.00;99.90;;;;;;5035647;28;20175;-65
2023/10/24 00:20:53;;;;;;;8.68;3.53;;;12.90;99.90;;;;;;5018009;28;20671;-66
2023/10/24 00:23:20;;;;;;;6.80;3.50;;;12.90;99.90;;;;;;5035023;28;20254;-66
2023/10/24 00:25:46;;;;;;;5.65;3.45;;;13.00;99.90;;;;;;5017947;28;20565;-65
2023/10/24 00:28:12;;;;;;;7.70;3.85;;;13.00;99.90;;;;;;5035631;28;20183;-65
2023/10/24 00:30:39;;;;;;;5.97;3.88;;;13.10;99.90;;;;;;5017703;28;20253;-65
2023/10/24 00:33:05;;;;;;;9.85;3.55;;;13.10;99.90;;;;;;5035264;28;20224;-65
2023/10/24 00:35:31;;;;;;;5.75;3.95;;;13.10;99.90;;;;;;5035750;28;20197;-65
2023/10/24 00:37:57;;;;;;;8.52;3.88;;;13.10;99.90;;;;;;5017615;28;20270;-66
2023/10/24 00:40:23;;;;;;;5.53;3.95;;;13.20;99.90;;;;;;5017698;28;20290;-65
2023/10/24 00:42:51;;;;;;;8.73;4.15;;;13.20;99.90;;;;;;5035633;28;20194;-65
2023/10/24 00:45:16;;;;;;;6.43;3.30;;;13.20;99.90;;;;;;5035510;28;20171;-65
2023/10/24 00:47:43;;;;;;;4.82;3.42;;;13.30;99.90;;;;;;5035271;28;20179;-65
2023/10/24 00:50:09;;;;;;;7.40;3.97;;;13.30;99.90;;;;;;5035411;28;20703;-64
2023/10/24 00:52:36;;;;;;;9.60;4.15;;;13.30;99.90;;;;;;5035211;28;20648;-65
2023/10/24 00:55:04;;;;;;;7.15;3.58;;;13.30;99.90;;;;;;5035568;28;20286;-64
2023/10/24 00:57:29;;;;;;;6.80;3.28;;;13.30;99.90;;;;;;5035047;28;20171;-65
2023/10/24 00:59:55;;;;;;;5.70;3.70;;;13.30;99.90;;;;;;5034846;28;20183;-65
2023/10/24 01:02:21;;;;;;;4.68;3.30;;;13.20;99.90;;;;;;5034659;28;20203;-65
2023/10/24 01:04:50;;;;;;;8.65;3.70;;;13.20;99.90;;;;;;5035497;28;20159;-65
2023/10/24 01:07:16;;;;;;;8.38;3.55;;;13.20;99.90;;;;;;5034868;28;20206;-65
2023/10/24 01:09:42;;;;;;;7.47;3.83;;;13.20;99.90;;;;;;5034938;28;20206;-66
2023/10/24 01:12:08;;;;;;;3.72;3.40;;;13.20;99.90;;;;;;5035332;28;20223;-65
2023/10/24 01:14:33;;;;;;;3.72;3.30;;;13.20;99.90;;;;;;5034744;28;20186;-65
2023/10/24 01:16:59;;;;;;;5.72;3.85;;;13.20;99.90;;;;;;5034634;28;20203;-65
2023/10/24 01:19:25;;;;;;;5.18;3.47;;;13.30;99.90;;;;;;5034530;28;20203;-65
2023/10/24 01:21:51;;;;;;;4.07;3.38;;;13.30;99.90;;;;;;5016819;28;20275;-65
2023/10/24 01:24:17;;;;;;;5.85;3.53;;;13.30;99.90;;;;;;5034653;28;20171;-65
2023/10/24 01:26:44;;;;;;;6.07;3.72;;;13.30;99.90;;;;;;5034879;28;20197;-65
2023/10/24 01:29:10;;;;;;;5.68;3.33;;;13.30;99.90;;;;;;5034403;28;20190;-65
2023/10/24 01:31:36;;;;;;;8.57;3.60;;;13.30;99.90;;;;;;5034412;28;20253;-65
2023/10/24 01:34:03;;;;;;;6.20;3.45;;;13.30;99.90;;;;;;5033283;28;20285;-65
2023/10/24 01:36:29;;;;;;;8.13;3.70;;;13.30;99.90;;;;;;5034276;28;20227;-64
2023/10/24 01:38:55;;;;;;;6.25;3.40;;;13.30;99.90;;;;;;5016674;28;20233;-65
2023/10/24 01:41:21;;;;;;;4.63;3.40;;;13.30;99.90;;;;;;5036254;28;20683;-65
2023/10/24 01:43:47;;;;;;;4.82;3.30;;;13.20;99.90;;;;;;5016742;28;20178;-65
2023/10/24 01:46:13;;;;;;;6.03;3.50;;;13.20;99.90;;;;;;5034722;28;20171;-64
2023/10/24 01:48:40;;;;;;;6.78;3.13;;;13.30;99.90;;;;;;5033890;28;20171;-65
2023/10/24 01:51:06;;;;;;;6.35;3.47;;;13.30;99.90;;;;;;5016438;28;20308;-65
2023/10/24 01:53:31;;;;;;;4.40;3.00;;;13.30;99.90;;;;;;5034532;28;20207;-65
2023/10/24 01:55:57;;;;;;;3.35;3.05;;;13.30;99.90;;;;;;5034104;28;20226;-65
2023/10/24 01:58:23;;;;;;;9.75;3.88;;;13.30;99.90;;;;;;5034266;28;20265;-64
2023/10/24 02:00:49;;;;;;;4.10;3.42;;;13.30;99.90;;;;;;5033699;28;20272;-65
2023/10/24 02:03:14;;;;;;;5.95;3.25;;;13.30;99.90;;;;;;5033669;28;20538;-65
2023/10/24 02:05:40;;;;;;;7.53;3.80;;;13.30;99.90;;;;;;5033889;28;20644;-64
2023/10/24 02:08:06;;;;;;;5.40;3.45;;;13.30;99.90;;;;;;5033778;28;20202;-65
2023/10/24 02:10:32;;;;;;;5.53;3.50;;;13.30;99.90;;;;;;5015955;28;20199;-65
2023/10/24 02:12:58;;;;;;;4.78;3.45;;;13.30;99.90;;;;;;5033711;28;20662;-65
2023/10/24 02:15:24;;;;;;;5.65;4.05;;;13.30;99.90;;;;;;5033723;28;20679;-65
2023/10/24 02:17:49;;;;;;;4.85;3.50;;;13.30;99.90;;;;;;5033823;28;20540;-65
2023/10/24 02:20:15;;;;;;;6.72;3.60;;;13.20;99.90;;;;;;5033765;28;20175;-66
2023/10/24 02:22:41;;;;;;;4.50;3.60;;;13.20;99.90;;;;;;5033541;28;20191;-66
2023/10/24 02:25:08;;;;;;;4.47;3.13;;;13.20;99.90;;;;;;5034171;28;20183;-66
2023/10/24 02:27:35;;;;;;;4.38;3.30;;;13.20;99.90;;;;;;5015736;28;20175;-65
2023/10/24 02:30:01;;;;;;;4.88;3.28;;;13.20;99.90;;;;;;5033909;28;20198;-65
2023/10/24 02:32:27;;;;;;;5.43;3.53;;;13.20;99.90;;;;;;5033146;28;20175;-65
2023/10/24 02:34:53;;;;;;;4.15;3.83;;;13.10;99.90;;;;;;5033551;28;20177;-65
2023/10/24 02:37:19;;;;;;;8.73;3.75;;;13.10;99.90;;;;;;5033796;28;20167;-63
2023/10/24 02:39:45;;;;;;;3.72;3.35;;;13.10;99.90;;;;;;5034007;28;20206;-63
2023/10/24 02:42:10;;;;;;;3.92;3.20;;;13.10;99.90;;;;;;5033092;28;20190;-63
2023/10/24 02:44:36;;;;;;;4.32;3.47;;;13.10;99.90;;;;;;5033279;28;20171;-63
2023/10/24 02:47:02;;;;;;;5.53;3.60;;;13.10;99.90;;;;;;5033028;28;20190;-63
2023/10/24 02:49:30;;;;;;;5.32;3.50;;;13.10;99.90;;;;;;5015165;28;20179;-63
2023/10/24 02:51:56;;;;;;;4.53;3.08;;;13.10;99.90;;;;;;5033160;28;20278;-63
2023/10/24 02:54:22;;;;;;;4.63;3.47;;;13.10;99.90;;;;;;5033098;28;20771;-64
2023/10/24 02:56:48;;;;;;;4.35;3.10;;;13.10;99.90;;;;;;5033042;28;20312;-63
2023/10/24 02:59:14;;;;;;;4.25;3.35;;;13.00;99.90;;;;;;5015305;28;20277;-62
2023/10/24 03:01:40;;;;;;;4.50;3.30;;;13.10;99.90;;;;;;5033060;28;20215;-63
2023/10/24 03:04:06;;;;;;;5.18;3.58;;;13.10;99.90;;;;;;5032804;28;20171;-65
2023/10/24 03:06:31;;;;;;;9.73;3.97;;;13.00;99.90;;;;;;5033375;28;20171;-65
2023/10/24 03:08:57;;;;;;;7.43;3.53;;;13.10;99.90;;;;;;5033686;28;20160;-65
2023/10/24 03:11:24;;;;;;;5.78;3.28;;;13.00;99.90;;;;;;5033173;28;20195;-65
2023/10/24 03:13:52;;;;;;;4.95;3.40;;;13.00;99.90;;;;;;5015294;28;20178;-65
2023/10/24 03:16:18;;;;;;;4.18;3.67;;;13.00;99.90;;;;;;5032877;28;20203;-64
2023/10/24 03:18:43;;;;;;;6.18;3.42;;;13.00;99.90;;;;;;5032861;28;20214;-65
2023/10/24 03:21:10;;;;;;;3.75;3.30;;;13.00;99.90;;;;;;5032859;28;20561;-65
2023/10/24 03:23:36;;;;;;;5.38;3.53;;;13.00;99.90;;;;;;5032902;28;20187;-65
2023/10/24 03:26:05;;;;;;;4.43;3.40;;;13.00;99.90;;;;;;5032924;28;20220;-65
2023/10/24 03:28:31;;;;;;;5.65;3.70;;;13.00;99.90;;;;;;5032803;28;20207;-65
2023/10/24 03:31:04;;;;;;;7.82;3.35;;;13.00;99.90;;;;;;5033103;28;20722;-65
2023/10/24 03:33:34;;;;;;;4.63;3.30;;;13.00;99.90;;;;;;5032601;28;20574;-65
2023/10/24 03:36:01;;;;;;;3.85;3.40;;;13.00;99.90;;;;;;5033067;28;20206;-65
2023/10/24 03:38:27;;;;;;;3.53;3.00;;;13.00;99.90;;;;;;5032757;28;20175;-65
2023/10/24 03:40:54;;;;;;;7.63;3.30;;;13.00;99.90;;;;;;5032700;28;20329;-65
2023/10/24 03:43:20;;;;;;;3.67;3.35;;;13.00;99.90;;;;;;5032704;28;20286;-67
2023/10/24 03:45:46;;;;;;;4.07;2.85;;;13.00;99.90;;;;;;5015043;28;20179;-67
2023/10/24 03:48:12;;;;;;;4.25;3.40;;;13.00;99.90;;;;;;5032781;28;20198;-67
2023/10/24 03:50:39;;;;;;;4.80;3.10;;;13.00;99.90;;;;;;5014911;28;20249;-67
2023/10/24 03:53:06;;;;;;;5.40;3.33;;;13.00;99.90;;;;;;5032611;28;20739;-67
2023/10/24 03:55:35;;;;;;;4.90;3.20;;;13.00;99.90;;;;;;5032890;28;20199;-67
2023/10/24 03:58:00;;;;;;;3.72;3.33;;;13.00;99.90;;;;;;5034416;28;20171;-68
2023/10/24 04:00:26;;;;;;;4.97;3.17;;;13.10;99.90;;;;;;5036208;28;20221;-68
2023/10/24 04:02:54;;;;;;;5.82;2.80;;;13.20;99.90;;;;;;5036154;28;20167;-67
2023/10/24 04:05:20;;;;;;;3.38;3.08;;;13.20;99.90;;;;;;5018323;28;20628;-67
2023/10/24 04:07:46;;;;;;;4.05;3.13;;;13.20;99.90;;;;;;5035964;28;20183;-67
2023/10/24 04:10:13;;;;;;;4.97;3.42;;;13.10;99.90;;;;;;5018102;28;20202;-68
2023/10/24 04:12:39;;;;;;;4.95;2.80;;;13.10;99.90;;;;;;5035976;28;20179;-67
2023/10/24 04:15:06;;;;;;;3.95;3.08;;;13.00;99.90;;;;;;5035816;28;20683;-67
2023/10/24 04:17:35;;;;;;;7.20;3.33;;;13.00;99.90;;;;;;5035811;28;20288;-67
2023/10/24 04:20:01;;;;;;;5.95;3.08;;;13.00;99.90;;;;;;5035885;28;20224;-68
2023/10/24 04:22:29;;;;;;;3.58;3.20;;;13.00;99.90;;;;;;5035710;28;20183;-67
2023/10/24 04:24:55;;;;;;;4.15;3.10;;;13.00;99.90;;;;;;5035841;28;20206;-65
2023/10/24 04:27:21;;;;;;;7.53;3.28;;;13.00;99.90;;;;;;5036272;28;20252;-66
2023/10/24 04:29:47;;;;;;;4.65;2.55;;;12.90;99.90;;;;;;5035579;28;20249;-66
2023/10/24 04:32:13;;;;;;;3.90;3.47;;;12.90;99.90;;;;;;5035442;28;20672;-66
2023/10/24 04:34:39;;;;;;;4.88;3.00;;;12.90;99.90;;;;;;5035268;28;20167;-66
2023/10/24 04:37:06;;;;;;;5.80;2.90;;;12.90;99.90;;;;;;5035769;28;20252;-65
2023/10/24 04:39:32;;;;;;;4.68;2.83;;;12.90;99.90;;;;;;5035496;28;20174;-65
2023/10/24 04:41:58;;;;;;;3.30;3.00;;;12.90;99.90;;;;;;5035424;28;20270;-65
2023/10/24 04:44:24;;;;;;;3.08;2.78;;;12.90;99.90;;;;;;5035396;28;20588;-65
2023/10/24 04:46:50;;;;;;;3.00;2.70;;;12.90;99.90;;;;;;5035409;28;20545;-66
2023/10/24 04:49:16;;;;;;;3.38;2.95;;;12.90;99.90;;;;;;5035168;28;20598;-65
2023/10/24 04:51:43;;;;;;;4.57;3.00;;;12.90;99.90;;;;;;5017354;28;20246;-66
2023/10/24 04:54:09;;;;;;;4.43;2.60;;;12.90;99.90;;;;;;5035074;28;20178;-66
2023/10/24 04:56:35;;;;;;;4.20;2.80;;;12.90;99.90;;;;;;5017263;28;20290;-66
2023/10/24 04:59:02;;;;;;;3.00;2.70;;;12.90;99.90;;;;;;5035063;28;20262;-66
2023/10/24 05:01:28;;;;;;;5.72;2.78;;;12.90;99.90;;;;;;5034672;28;20217;-66
2023/10/24 05:03:54;;;;;;;4.50;3.03;;;12.90;99.90;;;;;;5034715;28;20176;-65
2023/10/24 05:06:20;;;;;;;4.70;2.70;;;12.80;99.90;;;;;;5035130;28;20182;-65
2023/10/24 05:08:45;;;;;;;2.95;2.65;;;12.80;99.90;;;;;;5034670;28;20183;-65
2023/10/24 05:11:11;;;;;;;5.70;2.60;;;12.80;99.90;;;;;;5035210;28;20293;-65
2023/10/24 05:13:37;;;;;;;3.22;2.88;;;12.80;99.90;;;;;;5034744;28;20265;-66
2023/10/24 05:16:03;;;;;;;3.42;2.70;;;12.80;99.90;;;;;;5034659;28;20260;-66
2023/10/24 05:18:28;;;;;;;3.75;2.75;;;12.80;99.90;;;;;;5016674;28;20179;-65
2023/10/24 05:20:54;;;;;;;5.38;3.17;;;12.80;99.90;;;;;;5034504;28;20287;-65
2023/10/24 05:23:20;;;;;;;2.92;2.55;;;12.80;99.90;;;;;;5034814;28;20175;-65
2023/10/24 05:25:47;;;;;;;3.33;3.00;;;12.80;99.90;;;;;;5034523;28;20208;-66
2023/10/24 05:28:12;;;;;;;5.47;2.67;;;12.80;99.90;;;;;;5034426;28;20183;-65
2023/10/24 05:30:41;;;;;;;4.05;2.60;;;12.80;99.90;;;;;;5034674;28;20586;-65
2023/10/24 05:33:07;;;;;;;3.75;2.90;;;12.80;99.90;;;;;;5016390;28;20682;-65
2023/10/24 05:35:33;;;;;;;3.63;2.72;;;12.80;99.90;;;;;;5021503;28;20242;-66
2023/10/24 05:37:59;;;;;;;5.78;2.75;;;12.80;99.90;;;;;;5014483;28;20255;-65
2023/10/24 05:40:25;;;;;;;3.45;2.40;;;12.80;99.90;;;;;;5013174;28;20242;-65
2023/10/24 05:42:51;;;;;;;5.10;2.85;;;12.80;99.90;;;;;;5014417;28;20175;-65
2023/10/24 05:45:18;;;;;;;2.70;2.50;;;12.80;99.90;;;;;;5014401;28;20255;-65
2023/10/24 05:47:44;;;;;;;2.70;2.50;;;12.80;99.90;;;;;;4996758;28;20278;-65
2023/10/24 05:50:10;;;;;;;2.60;2.40;;;12.80;99.90;;;;;;5014032;28;20640;-65
2023/10/24 05:52:36;;;;;;;2.75;2.38;;;12.80;99.90;;;;;;5014788;28;20555;-65
2023/10/24 05:55:02;;;;;;;2.63;2.53;;;12.80;99.90;;;;;;5012861;28;20179;-65
2023/10/24 05:57:29;;;;;;;5.50;2.40;;;12.80;99.90;;;;;;5014218;28;20588;-65
2023/10/24 05:59:55;;;;;;;3.53;2.55;;;12.80;99.90;;;;;;5028618;28;20669;-65
2023/10/24 06:02:21;;;;;;;2.60;2.40;;;12.80;99.90;;;;;;5013976;28;20333;-65
2023/10/24 06:04:46;;;;;;;3.88;2.40;;;12.80;99.90;;;;;;5013867;28;20267;-65
2023/10/24 06:07:13;;;;;;;2.75;2.40;;;12.80;99.90;;;;;;5014244;28;20179;-65
2023/10/24 06:09:39;;;;;;;3.45;2.53;;;12.80;99.90;;;;;;5014051;28;20178;-65
2023/10/24 06:12:05;;;;;;;4.22;2.30;;;12.80;99.90;;;;;;5014135;28;20203;-65
2023/10/24 06:14:33;;;;;;;2.45;2.35;;;12.80;99.90;;;;;;5013899;28;20188;-65
2023/10/24 06:16:59;;;;;;;2.72;2.53;;;12.70;99.90;;;;;;5013786;28;20195;-65
2023/10/24 06:19:24;;;;;;;2.80;2.60;;;12.70;99.90;;;;;;5013531;28;20551;-65
2023/10/24 06:21:50;;;;;;;4.28;2.58;;;12.70;99.90;;;;;;5013677;28;20251;-65
2023/10/24 06:24:16;;;;;;;4.25;2.60;;;12.70;99.90;;;;;;5013715;28;20180;-65
2023/10/24 06:26:42;;;;;;;2.85;2.50;;;12.70;99.90;;;;;;5013608;28;20184;-65
2023/10/24 06:29:07;;;;;;;2.95;2.60;;;12.70;99.90;;;;;;5013686;28;20227;-65
2023/10/24 06:31:33;;;;;;;5.97;2.58;;;12.70;99.90;;;;;;5013606;28;20557;-65
2023/10/24 06:33:59;;;;;;;4.13;2.60;;;12.70;99.90;;;;;;5013328;28;20176;-65
2023/10/24 06:36:25;;;;;;;3.00;2.45;;;12.70;99.90;;;;;;5013426;28;20273;-65
2023/10/24 06:38:51;;;;;;;2.88;2.67;;;12.70;99.90;;;;;;5013536;28;20223;-65
2023/10/24 06:41:18;;;;;;;3.58;3.20;;;12.60;99.90;;;;;;5012279;28;20196;-65
2023/10/24 06:43:44;;;;;;;4.28;2.47;;;12.70;99.90;;;;;;4995837;28;20653;-65
2023/10/24 06:46:10;;;;;;;4.03;2.40;;;12.70;99.90;;;;;;5013449;28;20187;-65
2023/10/24 06:48:36;;;;;;;2.92;2.72;;;12.60;99.90;;;;;;5013620;28;20229;-65
2023/10/24 06:51:02;;;;;;;2.80;2.60;;;12.70;99.90;;;;;;5013373;28;20680;-65
2023/10/24 06:53:28;;;;;;;2.65;2.45;;;12.70;99.90;;;;;;4995770;28;20194;-66
2023/10/24 06:56:00;;;;;;;4.18;2.80;;;12.60;99.90;;;;;;5013366;28;20725;-65
2023/10/24 06:58:27;;;;;;;3.45;2.72;;;12.60;99.90;;;;;;5013257;28;20186;-66
2023/10/24 07:00:54;;;;;;;3.92;2.70;;;12.60;99.90;;;;;;5013136;28;20199;-65
2023/10/24 07:03:20;;;;;;;2.97;2.70;;;12.60;99.90;;;;;;5013084;28;20199;-66
2023/10/24 07:05:53;;;;;;;3.33;2.55;;;12.60;99.90;;;;;;5013346;28;20196;-66
2023/10/24 07:08:20;;;;;;;3.08;2.83;;;12.60;99.90;;;;;;5013221;28;20202;-66
2023/10/24 07:10:46;;;;;;;5.50;2.92;;;12.50;99.90;;;;;;5013145;28;20214;-66
2023/10/24 07:13:12;;;;;;;2.70;2.50;;;12.50;99.90;;;;;;5013216;28;20199;-66
2023/10/24 07:15:39;;;;;;;4.70;3.00;;;12.50;99.90;;;;;;5013170;28;20257;-66
2023/10/24 07:18:06;;;;;;;3.92;3.15;;;12.50;99.90;;;;;;5013156;28;20532;-66
2023/10/24 07:20:36;;;;;;;6.03;3.22;;;12.50;99.90;;;;;;4995170;28;20192;-66
2023/10/24 07:23:03;;;;;;;3.00;2.80;;;12.60;99.90;;;;;;5013130;28;20609;-66
2023/10/24 07:25:29;;;;;;;4.05;3.22;;;12.60;99.90;;;;;;5013118;28;20203;-66
2023/10/24 07:27:56;;;;;;;6.05;3.15;;;12.60;99.90;;;;;;5013093;28;20219;-65
2023/10/24 07:30:22;;;;;;;3.15;2.90;;;12.50;99.90;;;;;;4995649;28;20596;-65
2023/10/24 07:32:48;;;;;;;5.47;2.90;;;12.50;99.90;;;;;;4998298;28;20259;-66
2023/10/24 07:35:14;;;;;;;3.50;2.92;;;12.50;99.90;;;;;;5016439;28;20274;-66
2023/10/24 07:37:40;;;;;;;4.97;2.90;;;12.50;99.90;;;;;;5016751;28;20175;-66
2023/10/24 07:40:06;;;;;;;4.15;3.08;;;12.50;99.90;;;;;;5017187;28;20203;-66
2023/10/24 07:42:32;;;;;;;2.92;2.72;;;12.50;99.90;;;;;;5016627;28;20649;-66
2023/10/24 07:44:58;;;;;;;3.85;3.55;;;12.50;99.90;;;;;;5016894;28;20179;-66
2023/10/24 07:47:26;;;;;;;3.55;3.03;;;12.50;99.90;;;;;;4998982;28;20187;-66
2023/10/24 07:49:53;;;;;;;3.95;2.85;;;12.50;99.90;;;;;;5016334;28;20149;-66
2023/10/24 07:52:18;;;;;;;3.33;3.00;;;12.50;99.90;;;;;;5016387;28;20367;-66
2023/10/24 07:54:44;;;;;;;4.35;2.70;;;12.60;99.90;;;;;;5016729;28;20203;-66
2023/10/24 07:57:12;;;;;;;3.15;2.70;;;12.60;99.90;;;;;;5016543;28;20203;-66
2023/10/24 07:59:38;;;;;;;2.97;2.65;;;12.60;99.90;;;;;;5016323;28;20648;-65
2023/10/24 08:02:04;;;;;;;2.88;2.65;;;12.70;99.90;;;;;;5016083;28;20212;-66
2023/10/24 08:04:29;;;;;;;3.65;2.58;;;12.70;99.90;;;;;;5015951;28;20235;-66
2023/10/24 08:06:56;;;;;;;2.78;2.45;;;12.70;99.90;;;;;;5016186;28;20175;-66
2023/10/24 08:09:22;;;;;;;3.60;2.85;;;12.70;99.90;;;;;;5016656;28;20182;-65
2023/10/24 08:11:47;;;;;;;2.80;2.60;;;12.70;99.90;;;;;;5016082;28;20201;-65
2023/10/24 08:14:14;;;;;;;2.90;2.70;;;12.70;99.90;;;;;;5016085;28;20611;-66
2023/10/24 08:16:40;;;;;;;3.33;2.70;;;12.70;99.90;;;;;;5016252;28;20199;-66
2023/10/24 08:19:05;;;;;;;2.90;2.70;;;12.70;99.90;;;;;;4998062;28;20180;-65
2023/10/24 08:21:31;;;;;;;2.70;2.53;;;12.70;99.90;;;;;;5015953;28;20628;-66
2023/10/24 08:23:57;;;;;;;3.15;2.50;;;12.70;99.90;;;;;;5016091;28;20210;-66
2023/10/24 08:26:23;;;;;;;4.03;2.35;;;12.70;99.90;;;;;;5015876;28;20171;-66
2023/10/24 08:28:49;;;;;;;4.20;2.55;;;12.70;99.90;;;;;;5015925;28;20184;-65
2023/10/24 08:31:15;;;;;;;2.42;2.33;;;12.70;99.90;;;;;;5015666;28;20195;-65
2023/10/24 08:33:41;;;;;;;2.45;2.35;;;12.70;99.90;;;;;;5015413;28;20172;-66
2023/10/24 08:36:07;;;;;;;2.85;2.60;;;12.80;99.90;;;;;;5015556;28;20607;-66
2023/10/24 08:38:33;;;;;;;3.70;2.50;;;12.80;99.90;;;;;;5015541;28;20171;-67
2023/10/24 08:40:59;;;;;;;2.63;2.40;;;12.80;99.90;;;;;;5015495;28;20680;-66
2023/10/24 08:43:25;;;;;;;3.28;2.65;;;12.80;99.90;;;;;;5014947;28;20172;-65
2023/10/24 08:45:51;;;;;;;2.70;2.50;;;12.80;99.90;;;;;;5015475;28;20172;-66
2023/10/24 08:48:20;;;;;;;2.92;2.60;;;12.80;99.90;;;;;;5015475;28;20187;-65
2023/10/24 08:50:46;;;;;;;2.50;2.40;;;12.80;99.90;;;;;;5015076;28;20278;-65
2023/10/24 08:53:13;;;;;;;2.75;2.60;;;12.80;99.90;;;;;;5015334;28;20176;-65
2023/10/24 08:55:48;;;;;;;3.35;2.67;;;12.90;99.90;;;;;;4997665;28;20766;-65
2023/10/24 08:58:16;;;;;;;2.78;2.40;;;12.80;99.90;;;;;;5015259;28;20183;-65
2023/10/24 09:00:43;;;;;;;4.60;2.47;;;12.80;99.90;;;;;;5015159;28;20250;-66
2023/10/24 09:03:09;;;;;;;3.42;2.28;;;12.80;99.90;;;;;;5015450;28;20625;-65
2023/10/24 09:05:38;;;;;;;2.90;2.70;;;12.90;99.90;;;;;;5014819;28;20188;-65
2023/10/24 09:08:05;;;;;;;2.75;2.35;;;12.80;99.90;;;;;;5015084;28;20259;-65
2023/10/24 09:10:31;;;;;;;2.50;2.30;;;12.90;99.90;;;;;;5014937;28;20199;-65
2023/10/24 09:12:57;;;;;;;2.95;2.50;;;12.90;99.90;;;;;;4997470;28;20172;-65
2023/10/24 09:15:23;;;;;;;5.25;2.30;;;12.90;99.90;;;;;;5015382;28;20224;-65
2023/10/24 09:17:49;;;;;;;2.92;2.50;;;12.90;99.90;;;;;;5015249;28;20542;-65
2023/10/24 09:20:18;;;;;;;2.60;2.40;;;12.90;99.90;;;;;;5014618;28;20172;-65
2023/10/24 09:22:44;;;;;;;3.67;2.63;;;12.90;99.90;;;;;;5014758;28;20546;-65
2023/10/24 09:25:10;;;;;;;2.60;2.40;;;12.90;99.90;;;;;;5014946;28;20258;-65
2023/10/24 09:27:35;;;;;;;2.42;2.33;;;12.90;99.90;;;;;;5014928;28;20295;-65
2023/10/24 09:30:13;;;;;;;2.95;2.50;;;13.00;99.90;;;;;;5014594;28;20203;-65
2023/10/24 09:32:43;;;;;;;3.03;2.40;;;13.00;99.90;;;;;;5014876;28;20172;-66
2023/10/24 09:35:09;;;;;;;3.65;2.47;;;13.10;99.90;;;;;;5014226;28;20183;-66
2023/10/24 09:37:44;;;;;;;2.55;2.35;;;13.10;99.90;;;;;;5014850;28;20183;-66
2023/10/24 09:40:10;;;;;;;2.58;2.38;;;13.10;99.90;;;;;;5014396;28;20159;-65
2023/10/24 09:42:38;;;;;;;2.70;2.50;;;13.10;99.90;;;;;;5014461;28;20183;-65
2023/10/24 09:45:05;;;;;;;5.95;3.05;;;13.10;99.90;;;;;;5014372;28;20705;-66
2023/10/24 09:47:32;;;;;;;4.05;2.70;;;13.10;99.90;;;;;;4996709;28;20208;-65
2023/10/24 09:49:59;;;;;;;2.63;2.30;;;13.10;99.90;;;;;;5013926;28;20172;-64
2023/10/24 09:52:26;;;;;;;2.65;2.45;;;13.10;99.90;;;;;;5014238;28;20649;-65
2023/10/24 09:54:53;;;;;;;2.78;2.50;;;13.20;99.90;;;;;;5013572;28;20684;-66
2023/10/24 09:57:20;;;;;;;2.60;2.40;;;13.20;99.90;;;;;;5013920;28;20211;-66
2023/10/24 09:59:58;;;;;;;4.03;2.50;;;13.20;99.90;;;;;;5014101;28;20186;-66
2023/10/24 10:02:25;;;;;;;2.70;2.50;;;13.30;99.90;;;;;;5013984;28;20191;-65
2023/10/24 10:04:51;;;;;;;4.93;2.70;;;13.30;99.90;;;;;;4996145;28;20715;-66
2023/10/24 10:07:18;;;;;;;2.55;2.35;;;13.30;99.90;;;;;;5014248;28;20180;-66
2023/10/24 10:09:50;;;;;;;2.90;2.60;;;13.40;99.90;;;;;;4996292;28;20186;-66
2023/10/24 10:12:17;;;;;;;3.40;2.97;;;13.50;99.90;;;;;;5013895;28;20234;-66
2023/10/24 10:14:51;;;;;;;2.70;2.50;;;13.50;99.90;;;;;;5013978;28;20204;-65
2023/10/24 10:17:35;;;;;;;2.83;2.60;;;13.60;99.90;;;;;;5013800;28;20219;-65
2023/10/24 10:20:37;;;;;;;3.25;2.60;;;13.70;99.90;;;;;;5013543;28;20164;-65
2023/10/24 10:23:25;;;;;;;3.20;2.90;;;13.90;99.90;;;;;;5013833;28;20163;-65
2023/10/24 10:25:59;;;;;;;4.57;2.92;;;14.00;99.90;;;;;;5013991;28;20529;-65
2023/10/24 10:29:11;;;;;;;3.15;2.92;;;14.10;99.90;;;;;;5013656;28;20279;-66
2023/10/24 10:31:57;;;;;;;2.92;2.63;;;14.10;99.90;;;;;;4995949;28;20203;-66
2023/10/24 10:34:33;;;;;;;4.97;3.10;;;14.30;99.90;;;;;;5012984;28;20683;-66
2023/10/24 10:36:59;;;;;;;2.83;2.63;;;14.30;99.90;;;;;;5013491;28;20199;-66
2023/10/24 10:39:25;;;;;;;4.65;2.50;;;14.30;99.90;;;;;;5014446;28;20164;-65
2023/10/24 10:41:51;;;;;;;3.00;2.70;;;14.30;99.90;;;;;;5013483;28;20323;-66
2023/10/24 10:44:39;;;;;;;3.35;3.05;;;14.20;99.90;;;;;;5013489;28;20172;-65
2023/10/24 10:47:07;;;;;;;6.28;2.78;;;14.20;99.90;;;;;;5013490;28;20175;-65
2023/10/24 10:49:47;;;;;;;2.70;2.50;;;14.10;99.90;;;;;;5013363;28;20171;-66
2023/10/24 10:52:45;;;;;;;2.88;2.60;;;14.10;99.90;;;;;;4995797;28;20204;-66
2023/10/24 10:55:27;;;;;;;3.20;3.00;;;14.10;99.90;;;;;;5009513;28;20199;-66
2023/10/24 10:58:18;;;;;;;2.60;2.40;;;14.10;99.90;;;;;;5013712;28;20156;-66
2023/10/24 11:00:56;;;;;;;3.00;2.80;;;14.10;99.90;;;;;;5013342;28;20211;-66
2023/10/24 11:03:44;;;;;;;3.33;2.92;;;14.30;99.90;;;;;;5013646;28;20168;-66
2023/10/24 11:06:12;;;;;;;3.42;2.80;;;14.50;99.90;;;;;;5013228;28;20187;-65
2023/10/24 11:08:38;;;;;;;3.22;2.55;;;14.50;99.90;;;;;;5017980;28;20201;-66
2023/10/24 11:11:09;;;;;;;2.70;2.50;;;14.50;99.90;;;;;;4999685;28;20684;-65
2023/10/24 11:13:40;;;;;;;3.72;2.60;;;14.50;99.90;;;;;;4999718;28;20270;-66
2023/10/24 11:16:08;;;;;;;2.80;2.60;;;14.40;99.90;;;;;;5017143;28;20203;-66
2023/10/24 11:18:35;;;;;;;3.17;2.60;;;14.50;99.90;;;;;;5017172;28;20661;-66
2023/10/24 11:21:03;;;;;;;2.95;2.70;;;14.60;99.90;;;;;;4999193;28;20230;-65
2023/10/24 11:23:31;;;;;;;2.75;2.55;;;14.60;99.90;;;;;;4999469;28;20215;-66
2023/10/24 11:26:01;;;;;;;6.18;2.95;;;14.50;99.90;;;;;;5017185;28;20199;-66
2023/10/24 11:28:28;;;;;;;2.75;2.53;;;14.50;99.90;;;;;;5016876;28;20180;-65
2023/10/24 11:30:57;;;;;;;3.60;2.90;;;14.40;99.90;;;;;;5017054;28;20203;-65
2023/10/24 11:33:24;;;;;;;2.67;2.47;;;14.40;99.90;;;;;;4999282;28;20180;-65
2023/10/24 11:35:50;;;;;;;3.20;3.00;;;14.50;99.90;;;;;;5016687;28;20223;-66
2023/10/24 11:38:16;;;;;;;2.97;2.78;;;14.50;99.90;;;;;;5016800;28;20183;-65
2023/10/24 11:40:46;;;;;;;2.90;2.67;;;14.40;99.90;;;;;;5017006;28;20191;-65
2023/10/24 11:43:14;;;;;;;4.30;2.92;;;14.40;99.90;;;;;;5016731;28;20196;-66
2023/10/24 11:45:40;;;;;;;2.95;2.75;;;14.50;99.90;;;;;;4999055;28;20190;-66
2023/10/24 11:48:06;;;;;;;2.90;2.60;;;14.40;99.90;;;;;;5016540;28;20176;-66
2023/10/24 11:50:45;;;;;;;3.45;3.08;;;14.30;99.90;;;;;;5016197;28;20297;-65
2023/10/24 11:53:19;;;;;;;3.13;2.70;;;14.20;99.90;;;;;;5016557;28;20180;-66
2023/10/24 11:55:46;;;;;;;2.97;2.78;;;14.20;99.90;;;;;;5016436;28;20195;-66
2023/10/24 11:58:11;;;;;;;2.50;2.30;;;14.20;99.90;;;;;;5016342;28;20652;-65
2023/10/24 12:00:41;;;;;;;4.00;2.30;;;14.10;99.90;;;;;;5016176;28;20254;-66
2023/10/24 12:03:07;;;;;;;4.00;2.45;;;14.10;99.90;;;;;;5016387;28;20167;-66
2023/10/24 12:05:34;;;;;;;3.15;2.60;;;14.10;99.90;;;;;;5015994;28;20190;-66
2023/10/24 12:08:01;;;;;;;2.95;2.70;;;14.20;99.90;;;;;;5016222;28;20649;-66
2023/10/24 12:10:33;;;;;;;3.00;2.80;;;14.20;99.90;;;;;;5016033;28;20203;-66
2023/10/24 12:13:03;;;;;;;2.90;2.70;;;14.30;99.90;;;;;;5016441;28;20159;-66
2023/10/24 12:15:32;;;;;;;4.55;2.70;;;14.30;99.90;;;;;;5016059;28;20207;-65
2023/10/24 12:18:04;;;;;;;2.72;2.50;;;14.30;99.90;;;;;;5015818;28;20625;-68
2023/10/24 12:20:31;;;;;;;2.85;2.55;;;14.30;99.90;;;;;;5015707;28;20691;-65
2023/10/24 12:22:57;;;;;;;4.20;2.78;;;14.30;99.90;;;;;;5015934;28;20168;-66
2023/10/24 12:25:23;;;;;;;4.32;2.70;;;14.40;99.90;;;;;;5016183;28;20172;-65
2023/10/24 12:27:49;;;;;;;4.25;2.45;;;14.40;99.90;;;;;;5015803;28;20195;-65
2023/10/24 12:30:15;;;;;;;2.90;2.50;;;14.30;99.90;;;;;;5015815;28;20188;-65
2023/10/24 12:32:41;;;;;;;2.65;2.45;;;14.30;99.90;;;;;;4998106;28;20172;-65
2023/10/24 12:35:08;;;;;;;4.68;2.45;;;14.30;99.90;;;;;;5015411;28;20226;-65
2023/10/24 12:37:37;;;;;;;2.92;2.40;;;14.20;99.90;;;;;;5015752;28;20661;-65
2023/10/24 12:40:04;;;;;;;2.65;2.45;;;14.20;99.90;;;;;;5016096;28;20180;-65
2023/10/24 12:42:31;;;;;;;3.10;2.80;;;14.10;99.90;;;;;;5015628;28;20562;-66
2023/10/24 12:44:56;;;;;;;2.80;2.60;;;14.10;99.90;;;;;;5015634;28;20183;-66
2023/10/24 12:47:22;;;;;;;3.53;2.78;;;14.10;99.90;;;;;;5015504;28;20187;-66
2023/10/24 12:49:48;;;;;;;3.15;2.70;;;14.00;99.90;;;;;;5015174;28;20203;-65